createdAt,value
2019-02-09T00:00:40.840Z,5.30
2019-02-09T00:04:53.673Z,5.17
2019-02-09T00:09:09.255Z,4.77
2019-02-09T00:13:21.984Z,5.27
2019-02-09T00:17:34.435Z,4.87
2019-02-09T00:21:47.219Z,5.30
2019-02-09T00:25:59.802Z,5.13
2019-02-09T00:30:12.628Z,5.20
2019-02-09T00:34:25.503Z,5.70
2019-02-09T00:38:37.834Z,6.63
2019-02-09T00:42:50.738Z,5.37
2019-02-09T00:47:03.296Z,4.83
2019-02-09T00:51:15.592Z,6.10
2019-02-09T00:55:28.684Z,6.37
2019-02-09T00:59:42.375Z,5.97
2019-02-09T01:03:54.689Z,4.37
2019-02-09T01:08:07.275Z,4.30
2019-02-09T01:12:20.029Z,3.63
2019-02-09T01:16:32.448Z,4.50
2019-02-09T01:20:45.332Z,3.27
2019-02-09T01:24:57.794Z,3.73
2019-02-09T01:29:10.225Z,3.97
2019-02-09T01:33:23.267Z,3.90
2019-02-09T01:37:35.925Z,3.37
2019-02-09T01:41:48.639Z,3.87
2019-02-09T01:46:01.096Z,4.37
2019-02-09T01:50:14.930Z,3.40
2019-02-09T01:54:27.728Z,4.23
2019-02-09T01:58:40.293Z,4.80
2019-02-09T02:02:52.704Z,2.97
2019-02-09T02:07:05.692Z,2.53
2019-02-09T02:11:19.342Z,3.27
2019-02-09T02:15:32.676Z,3.53
2019-02-09T02:19:46.361Z,3.60
2019-02-09T02:23:58.776Z,3.50
2019-02-09T02:28:11.183Z,3.47
2019-02-09T02:32:24.266Z,3.50
2019-02-09T02:36:36.732Z,3.80
2019-02-09T02:40:50.348Z,3.53
2019-02-09T02:45:02.601Z,4.27
2019-02-09T02:49:15.479Z,4.47
2019-02-09T02:53:27.846Z,4.33
2019-02-09T02:57:40.241Z,5.03
2019-02-09T03:01:53.036Z,5.03
2019-02-09T03:06:05.592Z,3.50
2019-02-09T03:10:18.312Z,4.67
2019-02-09T03:14:31.105Z,3.77
2019-02-09T03:18:43.670Z,4.60
2019-02-09T03:22:56.078Z,3.80
2019-02-09T03:27:08.867Z,4.17
2019-02-09T03:31:21.313Z,3.87
2019-02-09T03:35:33.891Z,3.80
2019-02-09T03:39:46.862Z,4.13
2019-02-09T03:43:59.335Z,3.60
2019-02-09T03:48:12.168Z,4.37
2019-02-09T03:52:24.629Z,4.47
2019-02-09T03:56:37.041Z,5.17
2019-02-09T04:00:55.372Z,4.90
2019-02-09T04:05:04.441Z,4.97
2019-02-09T04:09:17.165Z,5.53
2019-02-09T04:13:29.921Z,4.83
2019-02-09T04:17:42.808Z,5.20
2019-02-09T04:21:55.232Z,4.83
2019-02-09T04:26:07.637Z,5.33
2019-02-09T04:30:21.991Z,5.60
2019-02-09T04:34:34.777Z,5.20
2019-02-09T04:38:47.714Z,6.23
2019-02-09T04:43:00.176Z,5.60
2019-02-09T04:47:12.548Z,5.57
2019-02-09T04:51:25.370Z,5.87
2019-02-09T04:55:37.726Z,5.23
2019-02-09T04:59:50.717Z,4.73
2019-02-09T05:04:03.269Z,6.50
2019-02-09T05:08:15.683Z,5.73
2019-02-09T05:12:28.575Z,5.87
2019-02-09T05:16:41.095Z,5.90
2019-02-09T05:20:54.124Z,6.30
2019-02-09T05:25:06.930Z,5.67
2019-02-09T05:29:19.669Z,5.40
2019-02-09T05:33:32.292Z,4.80
2019-02-09T05:37:45.125Z,6.43
2019-02-09T05:41:57.577Z,4.50
2019-02-09T05:46:09.975Z,5.50
2019-02-09T05:50:22.950Z,5.97
2019-02-09T05:54:35.432Z,5.47
2019-02-09T05:58:47.736Z,5.43
2019-02-09T06:03:00.633Z,6.17
2019-02-09T06:07:13.103Z,6.00
2019-02-09T06:11:26.078Z,5.90
2019-02-09T06:15:38.640Z,4.50
2019-02-09T06:19:52.627Z,5.00
2019-02-09T06:24:05.672Z,5.60
2019-02-09T06:28:17.930Z,6.20
2019-02-09T06:32:30.813Z,5.63
2019-02-09T06:36:43.379Z,5.17
2019-02-09T06:40:55.890Z,6.03
2019-02-09T06:45:10.899Z,4.97
2019-02-09T06:49:23.757Z,4.40
2019-02-09T06:53:36.274Z,4.83
2019-02-09T06:57:48.521Z,4.63
2019-02-09T07:02:01.412Z,4.13
2019-02-09T07:06:13.871Z,4.90
2019-02-09T07:10:26.795Z,5.37
2019-02-09T07:14:39.414Z,5.57
2019-02-09T07:18:51.837Z,6.17
2019-02-09T07:23:04.433Z,5.40
2019-02-09T07:27:17.078Z,5.23
2019-02-09T07:31:29.600Z,6.00
2019-02-09T07:35:43.766Z,5.33
2019-02-09T07:39:56.743Z,4.30
2019-02-09T07:44:08.997Z,4.80
2019-02-09T07:48:21.877Z,3.90
2019-02-09T07:52:34.329Z,5.27
2019-02-09T07:56:46.804Z,5.40
2019-02-09T08:00:59.528Z,5.40
2019-02-09T08:05:12.829Z,6.00
2019-02-09T08:09:25.546Z,4.87
2019-02-09T08:13:37.934Z,6.77
2019-02-09T08:17:50.243Z,5.77
2019-02-09T08:22:03.219Z,4.57
2019-02-09T08:26:15.701Z,4.73
2019-02-09T08:30:31.360Z,6.23
2019-02-09T08:34:43.945Z,4.40
2019-02-09T08:38:56.493Z,4.57
2019-02-09T08:43:08.777Z,4.57
2019-02-09T08:47:21.528Z,5.33
2019-02-09T08:51:33.988Z,6.17
2019-02-09T08:55:46.391Z,4.03
2019-02-09T08:59:59.247Z,4.73
2019-02-09T09:04:11.744Z,5.13
2019-02-09T09:08:24.060Z,5.33
2019-02-09T09:12:36.945Z,4.80
2019-02-09T09:16:49.401Z,4.07
2019-02-09T09:21:03.734Z,5.10
2019-02-09T09:25:16.489Z,5.03
2019-02-09T09:29:28.861Z,6.33
2019-02-09T09:33:41.684Z,4.70
2019-02-09T09:37:55.866Z,5.43
2019-02-09T09:42:08.768Z,4.83
2019-02-09T09:46:21.333Z,5.27
2019-02-09T09:50:34.321Z,5.07
2019-02-09T09:54:46.876Z,5.10
2019-02-09T09:58:59.824Z,5.23
2019-02-09T10:03:12.428Z,5.30
2019-02-09T10:07:24.836Z,5.30
2019-02-09T10:11:37.729Z,5.10
2019-02-09T10:15:50.179Z,5.53
2019-02-09T10:20:02.491Z,4.83
2019-02-09T10:24:15.208Z,5.97
2019-02-09T10:28:28.006Z,5.30
2019-02-09T10:32:44.481Z,5.27
2019-02-09T10:36:54.980Z,6.00
2019-02-09T10:41:07.440Z,5.37
2019-02-09T10:45:21.656Z,5.60
2019-02-09T10:49:34.229Z,6.43
2019-02-09T10:53:46.632Z,6.03
2019-02-09T10:57:59.043Z,5.47
2019-02-09T11:02:11.900Z,5.23
2019-02-09T11:06:24.396Z,5.10
2019-02-09T11:10:36.811Z,5.60
2019-02-09T11:14:49.587Z,4.40
2019-02-09T11:19:02.162Z,5.47
2019-02-09T11:23:14.564Z,4.97
2019-02-09T11:27:28.154Z,6.37
2019-02-09T11:31:41.068Z,5.57
2019-02-09T11:35:53.662Z,5.10
2019-02-09T11:40:07.328Z,5.17
2019-02-09T11:44:19.613Z,4.90
2019-02-09T11:48:32.395Z,4.00
2019-02-09T11:52:44.960Z,4.53
2019-02-09T11:56:57.276Z,4.30
2019-02-09T12:01:10.062Z,5.30
2019-02-09T12:05:22.580Z,5.10
2019-02-09T12:09:35.398Z,4.80
2019-02-09T12:13:55.039Z,5.30
2019-02-09T12:18:02.121Z,4.87
2019-02-09T12:22:14.904Z,5.93
2019-02-09T12:26:27.253Z,5.37
2019-02-09T12:30:40.175Z,4.90
2019-02-09T12:34:52.769Z,4.40
2019-02-09T12:39:07.957Z,4.67
2019-02-09T12:43:20.284Z,4.83
2019-02-09T12:47:33.181Z,4.97
2019-02-09T12:51:45.631Z,4.20
2019-02-09T12:55:57.941Z,3.60
2019-02-09T13:00:15.482Z,4.30
2019-02-09T13:04:28.171Z,4.33
2019-02-09T13:08:41.057Z,4.70
2019-02-09T13:12:53.551Z,4.57
2019-02-09T13:17:05.987Z,5.47
2019-02-09T13:21:18.748Z,4.07
2019-02-09T13:25:31.204Z,4.50
2019-02-09T13:29:43.616Z,4.53
2019-02-09T13:33:56.508Z,4.60
2019-02-09T13:38:09.137Z,4.37
2019-02-09T13:42:22.063Z,4.77
2019-02-09T13:46:34.512Z,4.67
2019-02-09T13:50:47.952Z,5.37
2019-02-09T13:55:00.295Z,4.90
2019-02-09T13:59:13.252Z,4.67
2019-02-09T14:03:25.708Z,5.27
2019-02-09T14:07:38.022Z,4.83
2019-02-09T14:11:51.083Z,5.30
2019-02-09T14:16:08.138Z,4.97
2019-02-09T14:20:18.191Z,4.30
2019-02-09T14:24:30.652Z,4.90
2019-02-09T14:28:42.965Z,5.17
2019-02-09T14:32:55.856Z,4.77
2019-02-09T14:37:08.571Z,5.03
2019-02-09T14:41:21.480Z,5.00
2019-02-09T14:45:35.741Z,5.37
2019-02-09T14:49:48.583Z,5.00
2019-02-09T14:54:01.040Z,3.97
2019-02-09T14:58:14.392Z,4.63
2019-02-09T15:02:26.696Z,5.87
2019-02-09T15:06:39.005Z,4.77
2019-02-09T15:10:51.901Z,4.43
2019-02-09T15:15:04.525Z,4.67
2019-02-09T15:19:17.448Z,4.60
2019-02-09T15:23:29.800Z,5.00
2019-02-09T15:27:42.103Z,4.57
2019-02-09T15:31:54.512Z,4.20
2019-02-09T15:36:07.199Z,4.03
2019-02-09T15:40:20.659Z,5.23
2019-02-09T15:44:33.374Z,5.13
2019-02-09T15:48:46.192Z,5.30
2019-02-09T15:52:58.653Z,4.93
2019-02-09T15:57:11.561Z,3.93
2019-02-09T16:01:24.204Z,4.33
2019-02-09T16:05:36.613Z,4.70
2019-02-09T16:09:49.605Z,4.23
2019-02-09T16:14:02.414Z,4.37
2019-02-09T16:18:15.153Z,4.50
2019-02-09T16:22:27.615Z,5.00
2019-02-09T16:26:40.023Z,4.83
2019-02-09T16:30:52.909Z,4.50
2019-02-09T16:35:06.207Z,3.67
2019-02-09T16:39:18.997Z,5.40
2019-02-09T16:43:31.901Z,5.43
2019-02-09T16:47:44.553Z,4.53
2019-02-09T16:51:57.997Z,4.53
2019-02-09T16:56:10.432Z,4.07
2019-02-09T17:00:49.475Z,3.63
2019-02-09T17:05:01.879Z,4.00
2019-02-09T17:09:14.852Z,2.57
2019-02-09T17:13:27.416Z,3.43
2019-02-09T17:17:39.816Z,4.00
2019-02-09T17:21:52.618Z,3.83
2019-02-09T17:26:05.374Z,3.07
2019-02-09T17:30:20.812Z,3.33
2019-02-09T17:34:40.642Z,3.20
2019-02-09T17:38:47.749Z,3.47
2019-02-09T17:43:00.737Z,3.17
2019-02-09T17:47:13.189Z,1.53
2019-02-09T17:51:25.663Z,2.33
2019-02-09T17:55:38.388Z,2.67
2019-02-09T17:59:50.848Z,1.83
2019-02-09T18:04:03.152Z,2.60
2019-02-09T18:08:15.669Z,2.53
2019-02-09T18:12:28.920Z,3.23
2019-02-09T18:16:41.324Z,2.20
2019-02-09T18:20:54.160Z,1.97
2019-02-09T18:25:08.059Z,1.30
2019-02-09T18:29:20.308Z,2.00
2019-02-09T18:33:32.616Z,3.27
2019-02-09T18:37:44.933Z,6.30
2019-02-09T18:41:57.787Z,11.47
2019-02-09T18:46:10.296Z,11.87
2019-02-09T18:50:24.780Z,12.47
2019-02-09T18:54:37.546Z,11.10
2019-02-09T18:58:49.893Z,12.07
2019-02-09T19:03:02.876Z,11.30
2019-02-09T19:07:15.340Z,12.77
2019-02-09T19:11:28.320Z,11.10
2019-02-09T19:15:40.884Z,12.83
2019-02-09T19:19:53.763Z,12.20
2019-02-09T19:24:06.765Z,12.43
2019-02-09T19:28:19.521Z,13.93
2019-02-09T19:32:31.983Z,13.97
2019-02-09T19:36:44.396Z,12.97
2019-02-09T19:40:57.280Z,15.07
2019-02-09T19:45:12.660Z,12.53
2019-02-09T19:49:25.013Z,13.43
2019-02-09T19:53:37.328Z,13.30
2019-02-09T19:57:50.183Z,13.07
2019-02-09T20:02:02.676Z,12.57
2019-02-09T20:06:14.993Z,13.93
2019-02-09T20:10:29.936Z,11.23
2019-02-09T20:14:42.286Z,13.77
2019-02-09T20:18:55.066Z,12.83
2019-02-09T20:23:07.529Z,12.87
2019-02-09T20:27:19.889Z,13.23
2019-02-09T20:31:32.725Z,11.97
2019-02-09T20:35:45.181Z,12.27
2019-02-09T20:39:58.172Z,12.93
2019-02-09T20:44:10.925Z,11.60
2019-02-09T20:48:23.812Z,12.93
2019-02-09T20:52:36.274Z,13.50
2019-02-09T20:56:48.687Z,12.67
2019-02-09T21:01:01.646Z,11.73
2019-02-09T21:05:15.188Z,11.53
2019-02-09T21:09:27.678Z,10.47
2019-02-09T21:13:40.088Z,10.47
2019-02-09T21:17:52.423Z,11.63
2019-02-09T21:22:05.392Z,10.93
2019-02-09T21:26:17.641Z,10.93
2019-02-09T21:30:30.811Z,11.83
2019-02-09T21:34:43.307Z,11.30
2019-02-09T21:38:55.708Z,10.33
2019-02-09T21:43:08.659Z,11.63
2019-02-09T21:47:21.151Z,9.63
2019-02-09T21:51:33.468Z,10.60
2019-02-09T21:55:46.355Z,10.13
2019-02-09T21:59:58.828Z,9.40
2019-02-09T22:04:11.178Z,10.90
2019-02-09T22:08:23.912Z,10.10
2019-02-09T22:12:36.547Z,10.33
2019-02-09T22:16:49.054Z,11.70
2019-02-09T22:21:01.827Z,11.93
2019-02-09T22:25:16.749Z,8.27
2019-02-09T22:29:29.200Z,8.67
2019-02-09T22:33:41.675Z,9.60
2019-02-09T22:37:54.401Z,10.30
2019-02-09T22:42:07.329Z,10.27
2019-02-09T22:46:20.052Z,9.90
2019-02-09T22:50:34.395Z,10.70
2019-02-09T22:54:47.151Z,8.97
2019-02-09T22:58:59.496Z,8.07
2019-02-09T23:03:12.721Z,6.47
2019-02-09T23:07:35.500Z,6.63
2019-02-09T23:11:49.191Z,5.53
2019-02-09T23:16:01.643Z,5.63
2019-02-09T23:20:15.189Z,5.70
2019-02-09T23:24:27.489Z,5.23
2019-02-09T23:28:39.808Z,4.33
2019-02-09T23:32:52.596Z,4.00
2019-02-09T23:37:05.215Z,4.30
2019-02-09T23:41:18.047Z,4.40
2019-02-09T23:45:30.728Z,4.07
2019-02-09T23:49:44.375Z,4.40
2019-02-09T23:53:56.661Z,3.73
2019-02-09T23:58:09.439Z,3.70
